Time;durP1;ratioP1;P1;durP2;ratioP2;P2;SDS_P1;SDS_P2;PMS_P1;PMS_P2;Temp;Humidity;BMP_temperature;BMP_pressure;BME280_temperature;BME280_humidity;BME280_pressure;Samples;Min_cycle;Max_cycle;Signal;HPM_P1;HPM_P2
2022/11/09 00:01:01;;;;;;;3.92;1.55;;;;;;;11.79;100.00;99419.41;4985395;28;20049;-78
2022/11/09 00:03:26;;;;;;;4.60;1.77;;;;;;;11.83;100.00;99415.31;4972698;28;20495;-78
2022/11/09 00:05:55;;;;;;;6.60;2.30;;;;;;;11.88;100.00;99428.13;4971435;28;20034;-77
2022/11/09 00:08:21;;;;;;;3.50;1.58;;;;;;;11.82;100.00;99419.03;4984304;28;20515;-77
2022/11/09 00:10:46;;;;;;;3.97;1.97;;;;;;;11.84;100.00;99424.97;4966414;28;20030;-77
2022/11/09 00:13:11;;;;;;;4.20;1.60;;;;;;;11.73;100.00;99420.25;4985530;28;20038;-78
2022/11/09 00:15:37;;;;;;;8.70;1.90;;;;;;;11.70;100.00;99439.34;4983708;28;20056;-77
2022/11/09 00:18:02;;;;;;;3.80;1.70;;;;;;;11.78;100.00;99454.41;4983308;28;20031;-78
2022/11/09 00:20:28;;;;;;;5.63;1.60;;;;;;;11.82;100.00;99451.13;4969900;28;20030;-76
2022/11/09 00:22:54;;;;;;;9.68;2.55;;;;;;;11.80;100.00;99447.00;4986038;28;20166;-78
2022/11/09 00:25:19;;;;;;;6.17;1.73;;;;;;;11.91;100.00;99475.03;4969443;28;20042;-78
2022/11/09 00:27:44;;;;;;;5.90;1.67;;;;;;;11.98;100.00;99457.97;4985715;28;20470;-78
2022/11/09 00:30:11;;;;;;;4.00;1.93;;;;;;;11.98;100.00;99433.06;4982902;28;20388;-78
2022/11/09 00:32:36;;;;;;;4.85;1.92;;;;;;;12.03;100.00;99436.78;4971563;28;20034;-77
2022/11/09 00:35:02;;;;;;;5.37;2.50;;;;;;;12.12;100.00;99441.94;4982738;28;20043;-78
2022/11/09 00:37:30;;;;;;;4.05;1.40;;;;;;;12.02;100.00;99396.88;4982139;28;20037;-77
2022/11/09 00:39:56;;;;;;;4.68;1.65;;;;;;;12.13;100.00;99423.00;4985055;28;20038;-77
2022/11/09 00:42:21;;;;;;;6.17;1.67;;;;;;;12.33;100.00;99398.09;4984549;28;20034;-76
2022/11/09 00:44:49;;;;;;;1.85;1.30;;;;;;;12.28;100.00;99360.44;4971028;28;20346;-77
2022/11/09 00:47:14;;;;;;;4.87;1.50;;;;;;;12.34;100.00;99354.22;4968613;28;20050;-76
2022/11/09 00:49:40;;;;;;;3.07;1.97;;;;;;;12.31;100.00;99342.09;4984692;28;20037;-77
2022/11/09 00:52:07;;;;;;;4.50;1.60;;;;;;;12.27;100.00;99334.69;4987765;28;20566;-78
2022/11/09 00:54:34;;;;;;;2.22;1.85;;;;;;;12.33;100.00;99360.63;4970207;28;20050;-77
2022/11/09 00:56:59;;;;;;;4.77;1.60;;;;;;;12.31;100.00;99336.75;4981574;28;20022;-76
2022/11/09 00:59:25;;;;;;;3.55;1.50;;;;;;;12.28;100.00;99336.34;4964858;28;20045;-76
2022/11/09 01:01:50;;;;;;;4.43;2.03;;;;;;;12.20;100.00;99335.53;4966379;28;20038;-74
2022/11/09 01:04:16;;;;;;;;;;;;;;;12.18;100.00;99352.84;4967478;28;20372;-76
2022/11/09 01:06:42;;;;;;;;;;;;;;;12.08;100.00;99368.47;4984618;28;19936;-75
2022/11/09 01:09:08;;;;;;;6.32;1.85;;;;;;;12.03;100.00;99388.66;4980564;28;19917;-76
2022/11/09 01:11:35;;;;;;;3.78;1.83;;;;;;;11.94;100.00;99403.25;4979897;28;20093;-78
2022/11/09 01:14:01;;;;;;;7.40;2.40;;;;;;;11.92;100.00;99429.38;4963070;28;20476;-76
2022/11/09 01:16:27;;;;;;;6.38;1.85;;;;;;;11.86;100.00;99437.34;4966244;28;20026;-75
2022/11/09 01:18:57;;;;;;;5.77;2.07;;;;;;;11.77;100.00;99464.25;4980449;28;20113;-76
2022/11/09 01:21:24;;;;;;;4.05;1.70;;;;;;;11.81;100.00;99486.09;4980208;28;20498;-77
2022/11/09 01:23:49;;;;;;;6.00;1.98;;;;;;;11.79;100.00;99488.94;4978347;28;20476;-75
2022/11/09 01:26:15;;;;;;;3.77;1.33;;;;;;;11.73;100.00;99478.22;4981601;28;20041;-75
2022/11/09 01:28:42;;;;;;;4.25;1.92;;;;;;;11.70;100.00;99494.69;4962944;28;20030;-77
2022/11/09 01:31:13;;;;;;;3.28;1.70;;;;;;;11.55;100.00;99492.16;4980050;28;20399;-76
2022/11/09 01:33:38;;;;;;;5.75;1.80;;;;;;;11.59;100.00;99512.94;4982257;28;20039;-75
2022/11/09 01:36:06;;;;;;;4.70;1.77;;;;;;;11.58;100.00;99518.47;4970131;28;20042;-76
2022/11/09 01:38:32;;;;;;;3.38;1.98;;;;;;;11.46;100.00;99517.41;4967794;28;20057;-76
2022/11/09 01:40:59;;;;;;;6.43;2.67;;;;;;;11.50;100.00;99554.22;4978994;28;20027;-76
2022/11/09 01:43:25;;;;;;;;;;;;;;;11.48;100.00;99544.75;4982718;28;20458;-79
2022/11/09 01:45:54;;;;;;;;;;;;;;;11.41;100.00;99576.78;4980268;28;19922;-77
2022/11/09 01:48:49;;;;;;;6.18;2.67;;;;;;;11.42;100.00;99583.78;4983322;28;19913;-76
2022/11/09 01:51:32;;;;;;;3.10;1.55;;;;;;;11.28;100.00;99582.84;4980780;28;20049;-78
2022/11/09 01:54:07;;;;;;;6.40;2.28;;;;;;;11.20;100.00;99607.88;4982638;28;20050;-78
2022/11/09 01:56:33;;;;;;;4.75;1.95;;;;;;;11.14;100.00;99613.19;4983490;28;20034;-77
2022/11/09 01:59:02;;;;;;;3.45;1.80;;;;;;;11.15;100.00;99625.53;4982167;28;20415;-75
2022/11/09 02:01:29;;;;;;;5.15;1.80;;;;;;;11.16;100.00;99643.19;4985683;28;20030;-76
2022/11/09 02:03:58;;;;;;;;;;;;;;;11.24;100.00;99661.78;4966051;28;20121;-76
2022/11/09 02:06:26;;;;;;;5.13;1.85;;;;;;;11.24;100.00;99658.25;4980870;28;19910;-75
2022/11/09 02:08:57;;;;;;;3.47;1.88;;;;;;;11.32;100.00;99658.94;4981710;28;20066;-76
2022/11/09 02:11:23;;;;;;;4.25;2.00;;;;;;;11.29;100.00;99627.28;4969456;28;20034;-76
2022/11/09 02:13:52;;;;;;;;;;;;;;;11.31;100.00;99619.91;4983925;28;20070;-75
2022/11/09 02:16:18;;;;;;;4.80;2.22;;;;;;;11.40;100.00;99634.75;4983603;28;20292;-75
2022/11/09 02:18:51;;;;;;;7.68;1.80;;;;;;;11.32;100.00;99612.69;4969179;28;20246;-75
2022/11/09 02:21:17;;;;;;;8.85;1.90;;;;;;;11.48;100.00;99627.63;4980475;28;20388;-75
2022/11/09 02:23:43;;;;;;;5.35;1.80;;;;;;;11.55;100.00;99605.25;4963185;28;20030;-75
2022/11/09 02:26:15;;;;;;;3.03;1.73;;;;;;;11.54;100.00;99563.50;4974260;28;20042;-78
2022/11/09 02:28:41;;;;;;;3.17;2.10;;;;;;;11.60;100.00;99569.91;4984049;28;20519;-80
2022/11/09 02:31:10;;;;;;;4.15;1.55;;;;;;;11.50;100.00;99553.41;4967150;28;20034;-79
2022/11/09 02:34:15;;;;;;;5.30;2.13;;;;;;;11.52;100.00;99564.69;4981602;28;20406;-79
2022/11/09 02:36:42;;;;;;;3.92;1.65;;;;;;;11.44;100.00;99563.03;4979270;28;20034;-79
2022/11/09 02:39:14;;;;;;;2.97;1.90;;;;;;;11.49;100.00;99594.50;4979281;28;20520;-77
2022/11/09 02:41:50;;;;;;;4.57;2.08;;;;;;;11.61;100.00;99588.44;4982000;28;20037;-75
2022/11/09 02:44:17;;;;;;;5.10;2.00;;;;;;;11.64;100.00;99565.81;4981371;28;20030;-76
2022/11/09 02:46:43;;;;;;;4.72;1.73;;;;;;;11.59;100.00;99552.22;4968635;28;20014;-75
2022/11/09 02:49:10;;;;;;;5.85;2.33;;;;;;;11.60;100.00;99541.31;4983050;28;20036;-76
2022/11/09 02:51:35;;;;;;;4.63;1.88;;;;;;;11.58;100.00;99535.34;4983684;28;20597;-77
2022/11/09 02:54:01;;;;;;;4.47;2.13;;;;;;;11.61;100.00;99531.44;4975250;28;20039;-76
2022/11/09 02:56:26;;;;;;;4.23;1.63;;;;;;;11.61;100.00;99534.13;4982797;28;20117;-76
2022/11/09 02:58:51;;;;;;;5.50;2.47;;;;;;;11.58;100.00;99554.06;4981940;28;20403;-75
2022/11/09 03:01:17;;;;;;;5.37;1.87;;;;;;;11.61;100.00;99548.34;4982836;28;20408;-75
2022/11/09 03:03:43;;;;;;;3.45;2.50;;;;;;;11.59;100.00;99552.22;4981173;28;20089;-76
2022/11/09 03:06:11;;;;;;;3.30;1.75;;;;;;;11.59;100.00;99557.56;4979804;28;20443;-77
2022/11/09 03:08:36;;;;;;;3.45;1.70;;;;;;;11.53;100.00;99542.31;4965665;28;20033;-76
2022/11/09 03:11:02;;;;;;;4.03;1.63;;;;;;;11.50;100.00;99564.91;4968244;28;20022;-75
2022/11/09 03:13:28;;;;;;;2.75;1.65;;;;;;;11.54;100.00;99573.34;4982309;28;20061;-75
2022/11/09 03:15:54;;;;;;;8.45;2.42;;;;;;;11.55;100.00;99585.72;4982271;28;20108;-76
2022/11/09 03:18:19;;;;;;;6.60;2.20;;;;;;;11.54;100.00;99584.91;4982322;28;20045;-77
2022/11/09 03:20:44;;;;;;;4.80;1.77;;;;;;;11.47;100.00;99597.41;4964518;28;20073;-78
2022/11/09 03:23:10;;;;;;;2.07;1.63;;;;;;;11.59;100.00;99617.19;4979751;28;20476;-78
2022/11/09 03:25:37;;;;;;;3.72;1.98;;;;;;;11.58;100.00;99601.34;4982502;28;20018;-77
2022/11/09 03:28:05;;;;;;;3.25;1.77;;;;;;;11.58;100.00;99599.50;4980909;28;20066;-78
2022/11/09 03:30:31;;;;;;;4.75;2.83;;;;;;;11.57;100.00;99613.06;4966281;28;20084;-79
2022/11/09 03:33:09;;;;;;;3.47;1.77;;;;;;;11.61;100.00;99633.03;4996707;28;20081;-78
2022/11/09 03:35:36;;;;;;;4.80;1.83;;;;;;;11.67;100.00;99612.72;4977956;28;20570;-78
2022/11/09 03:38:02;;;;;;;4.05;1.90;;;;;;;11.79;100.00;99611.94;4981914;28;20030;-78
2022/11/09 03:40:29;;;;;;;6.68;2.30;;;;;;;11.68;100.00;99579.59;4981973;28;20027;-80
2022/11/09 03:42:54;;;;;;;;;;;;;;;11.67;100.00;99589.47;4980536;28;20030;-78
2022/11/09 03:45:20;;;;;;;4.55;1.80;;;;;;;11.67;100.00;99600.16;4981842;28;20473;-81
2022/11/09 03:47:46;;;;;;;4.87;2.00;;;;;;;11.73;100.00;99596.72;4979580;28;20026;-79
2022/11/09 03:50:13;;;;;;;5.00;1.77;;;;;;;11.76;100.00;99598.97;4981942;28;20037;-78
2022/11/09 03:52:42;;;;;;;5.05;1.50;;;;;;;11.81;100.00;99598.38;4980634;28;20045;-78
2022/11/09 03:55:08;;;;;;;4.18;2.00;;;;;;;11.76;100.00;99596.31;4980807;28;20034;-78
2022/11/09 03:57:33;;;;;;;4.93;1.50;;;;;;;11.73;100.00;99599.38;4981211;28;20116;-78
2022/11/09 03:59:58;;;;;;;2.97;2.00;;;;;;;11.71;100.00;99595.25;4981061;28;20041;-78
2022/11/09 04:02:24;;;;;;;4.37;1.73;;;;;;;11.74;100.00;99608.22;4978967;28;20047;-78
2022/11/09 04:04:49;;;;;;;10.40;2.70;;;;;;;11.75;100.00;99610.72;4980866;28;20034;-78
2022/11/09 04:07:14;;;;;;;12.67;2.10;;;;;;;11.72;100.00;99595.06;4965128;28;20088;-78
2022/11/09 04:09:40;;;;;;;6.03;1.87;;;;;;;11.74;100.00;99614.41;4981331;28;20037;-80
2022/11/09 04:12:05;;;;;;;3.87;1.50;;;;;;;11.76;100.00;99614.22;4984030;28;20037;-79
2022/11/09 04:14:30;;;;;;;4.17;1.50;;;;;;;11.79;100.00;99608.47;4983438;28;20073;-79
2022/11/09 04:16:56;;;;;;;7.17;2.73;;;;;;;11.74;100.00;99602.88;4981186;28;20338;-78
2022/11/09 04:19:21;;;;;;;3.07;1.60;;;;;;;11.73;100.00;99615.44;4981668;28;20117;-78
2022/11/09 04:21:47;;;;;;;4.80;1.90;;;;;;;11.90;100.00;99623.16;4981497;28;20046;-77
2022/11/09 04:24:12;;;;;;;8.30;2.20;;;;;;;11.90;100.00;99599.09;4982450;28;20506;-78
2022/11/09 04:26:38;;;;;;;4.50;1.97;;;;;;;11.87;100.00;99610.13;4979985;28;20049;-78
2022/11/09 04:29:03;;;;;;;4.23;2.27;;;;;;;11.80;100.00;99602.91;4980141;28;20536;-77
2022/11/09 04:31:28;;;;;;;5.30;2.42;;;;;;;11.80;100.00;99600.25;4981168;28;20644;-78
2022/11/09 04:33:54;;;;;;;6.57;2.17;;;;;;;11.71;100.00;99598.75;4980155;28;20035;-77
2022/11/09 04:36:19;;;;;;;5.25;2.40;;;;;;;11.73;100.00;99607.41;4980880;28;20034;-79
2022/11/09 04:38:45;;;;;;;3.47;1.60;;;;;;;11.61;100.00;99608.97;4978916;28;20066;-78
2022/11/09 04:41:10;;;;;;;2.10;1.77;;;;;;;11.69;100.00;99632.88;4984913;28;20038;-80
2022/11/09 04:43:35;;;;;;;6.27;2.87;;;;;;;11.73;100.00;99623.47;4968185;28;20157;-80
2022/11/09 04:46:01;;;;;;;6.17;2.40;;;;;;;11.72;100.00;99613.75;4965981;28;20034;-76
2022/11/09 04:48:28;;;;;;;5.15;2.05;;;;;;;11.66;100.00;99605.69;4983973;28;20032;-75
2022/11/09 04:50:59;;;;;;;5.15;1.95;;;;;;;11.60;100.00;99601.97;4976043;28;20489;-75
2022/11/09 04:53:24;;;;;;;2.88;1.88;;;;;;;11.53;100.00;99619.84;4981996;28;20093;-77
2022/11/09 04:55:49;;;;;;;4.90;1.87;;;;;;;11.53;100.00;99638.53;4966074;28;20140;-77
2022/11/09 04:58:15;;;;;;;5.07;2.00;;;;;;;11.57;100.00;99642.47;4980839;28;20399;-80
2022/11/09 05:00:40;;;;;;;3.27;1.90;;;;;;;11.41;100.00;99620.38;4980748;28;20030;-79
2022/11/09 05:03:06;;;;;;;5.90;3.17;;;;;;;11.48;100.00;99649.00;4977589;28;20031;-79
2022/11/09 05:05:34;;;;;;;3.08;2.00;;;;;;;11.31;100.00;99654.63;4980425;28;20030;-77
2022/11/09 05:08:00;;;;;;;3.60;2.00;;;;;;;11.33;100.00;99676.66;4978836;28;20039;-79
2022/11/09 05:10:25;;;;;;;3.22;2.00;;;;;;;11.38;100.00;99684.91;4980904;28;20065;-80
2022/11/09 05:12:57;;;;;;;2.80;2.00;;;;;;;11.41;100.00;99689.03;4978904;28;20031;-81
2022/11/09 05:15:22;;;;;;;9.27;2.90;;;;;;;11.32;100.00;99683.00;4981628;28;20034;-78
2022/11/09 05:17:47;;;;;;;4.13;1.93;;;;;;;11.32;100.00;99695.53;4979885;28;20125;-78
2022/11/09 05:20:13;;;;;;;6.63;2.13;;;;;;;11.29;100.00;99694.06;4964624;28;20037;-78
2022/11/09 05:25:23;;;;;;;3.60;2.00;;;;;;;11.22;100.00;99717.25;4983477;28;20300;-78
2022/11/09 05:27:49;;;;;;;4.73;2.10;;;;;;;11.28;100.00;99743.19;4970139;28;20027;-79
2022/11/09 05:30:14;;;;;;;8.83;2.47;;;;;;;11.25;100.00;99732.88;4984637;28;20069;-79
2022/11/09 05:32:39;;;;;;;6.65;2.22;;;;;;;11.39;100.00;99726.63;4983478;28;20042;-77
2022/11/09 05:35:05;;;;;;;5.60;2.00;;;;;;;11.37;100.00;99709.97;4986608;28;20042;-80
2022/11/09 05:37:31;;;;;;;3.40;2.20;;;;;;;11.25;100.00;99711.50;4971836;28;20038;-80
2022/11/09 05:39:56;;;;;;;4.00;2.70;;;;;;;11.34;100.00;99725.56;4978351;28;20377;-77
2022/11/09 05:42:25;;;;;;;6.63;2.40;;;;;;;11.27;100.00;99722.00;4984588;28;20038;-78
2022/11/09 05:44:50;;;;;;;6.30;2.03;;;;;;;11.23;100.00;99726.06;4984404;28;20031;-81
2022/11/09 05:47:15;;;;;;;7.70;2.60;;;;;;;11.10;100.00;99732.97;4987220;28;20484;-81
2022/11/09 05:49:41;;;;;;;8.60;3.00;;;;;;;11.19;100.00;99766.53;4982644;28;20026;-77
2022/11/09 05:52:06;;;;;;;4.87;2.30;;;;;;;11.25;100.00;99764.13;4984916;28;20096;-78
2022/11/09 05:54:31;;;;;;;5.33;2.67;;;;;;;11.20;100.00;99762.03;4985001;28;20101;-79
2022/11/09 05:56:57;;;;;;;3.47;1.90;;;;;;;11.20;100.00;99762.84;4983157;28;20097;-78
2022/11/09 05:59:22;;;;;;;6.93;2.83;;;;;;;11.26;100.00;99758.59;4963861;28;20054;-78
2022/11/09 06:01:47;;;;;;;4.80;2.37;;;;;;;11.26;100.00;99765.75;4985342;28;20030;-75
2022/11/09 06:04:13;;;;;;;6.53;2.70;;;;;;;11.30;100.00;99761.69;4983874;28;20031;-76
2022/11/09 06:06:38;;;;;;;8.40;2.90;;;;;;;11.26;100.00;99755.94;4983716;28;20035;-77
2022/11/09 06:09:03;;;;;;;7.80;2.33;;;;;;;11.29;100.00;99744.84;4983033;28;20066;-76
2022/11/09 06:11:29;;;;;;;8.87;2.97;;;;;;;11.27;100.00;99738.88;4967676;28;20037;-77
2022/11/09 06:13:54;;;;;;;4.00;2.20;;;;;;;11.23;100.00;99731.41;4981686;28;20288;-77
2022/11/09 06:16:20;;;;;;;4.50;2.47;;;;;;;11.18;100.00;99726.66;4983581;28;20034;-75
2022/11/09 06:18:45;;;;;;;5.83;1.97;;;;;;;11.09;100.00;99743.81;4981611;28;20034;-77
2022/11/09 06:21:11;;;;;;;3.87;2.20;;;;;;;11.13;100.00;99767.28;4981456;28;20684;-77
2022/11/09 06:23:36;;;;;;;7.65;2.03;;;;;;;11.16;100.00;99760.75;4986032;28;20022;-77
2022/11/09 06:26:08;;;;;;;9.57;2.30;;;;;;;11.14;100.00;99752.09;4982465;28;20415;-76
2022/11/09 06:28:35;;;;;;;4.03;2.00;;;;;;;11.11;100.00;99755.16;4969387;28;20057;-79
2022/11/09 06:31:01;;;;;;;;;;;;;;;11.14;100.00;99752.94;4970536;28;20510;-80
2022/11/09 06:33:28;;;;;;;7.35;2.80;;;;;;;11.07;100.00;99748.53;4981932;28;20368;-79
2022/11/09 06:35:55;;;;;;;4.63;2.30;;;;;;;11.01;100.00;99759.97;4982087;28;20110;-79
2022/11/09 06:38:21;;;;;;;4.05;2.35;;;;;;;10.98;100.00;99775.38;4970717;28;20601;-79
2022/11/09 06:40:50;;;;;;;4.93;2.13;;;;;;;11.04;100.00;99797.81;4980493;28;20030;-78
2022/11/09 06:43:16;;;;;;;6.97;3.10;;;;;;;11.03;100.00;99798.84;4983193;28;20038;-78
2022/11/09 06:45:41;;;;;;;5.33;2.30;;;;;;;11.05;100.00;99801.31;4982973;28;20029;-78
2022/11/09 06:48:08;;;;;;;3.80;2.53;;;;;;;11.15;100.00;99801.84;4983547;28;20117;-78
2022/11/09 06:50:34;;;;;;;8.30;2.55;;;;;;;11.22;100.00;99810.75;4984582;28;20018;-78
2022/11/09 06:53:02;;;;;;;7.57;2.67;;;;;;;11.23;100.00;99809.72;4967687;28;20047;-78
2022/11/09 06:55:29;;;;;;;6.75;2.70;;;;;;;11.28;100.00;99804.63;4985703;28;20145;-75
2022/11/09 06:57:54;;;;;;;6.57;2.50;;;;;;;11.32;100.00;99800.56;4980801;28;20027;-75
2022/11/09 07:00:20;;;;;;;4.90;2.05;;;;;;;11.28;100.00;99795.78;4983117;28;20714;-77
2022/11/09 07:02:45;;;;;;;6.82;2.13;;;;;;;11.29;100.00;99790.28;4982278;28;20026;-76
2022/11/09 07:05:11;;;;;;;5.80;1.97;;;;;;;11.25;100.00;99786.31;4981312;28;20124;-76
2022/11/09 07:07:36;;;;;;;8.10;2.93;;;;;;;11.29;100.00;99803.63;4976171;28;20041;-78
2022/11/09 07:10:02;;;;;;;2.50;1.80;;;;;;;11.32;100.00;99803.25;4983706;28;20035;-76
2022/11/09 07:12:28;;;;;;;3.42;2.35;;;;;;;11.31;100.00;99798.94;4976261;28;20062;-75
2022/11/09 07:14:53;;;;;;;6.27;1.87;;;;;;;11.32;100.00;99797.06;4983240;28;20054;-77
2022/11/09 07:17:19;;;;;;;3.67;2.07;;;;;;;11.31;100.00;99800.78;4984631;28;20057;-75
2022/11/09 07:19:44;;;;;;;3.83;2.07;;;;;;;11.28;100.00;99804.63;4979142;28;20026;-75
2022/11/09 07:22:10;;;;;;;8.20;2.38;;;;;;;11.40;100.00;99815.66;4975341;28;20934;-76
2022/11/09 07:24:35;;;;;;;2.93;2.00;;;;;;;11.38;100.00;99813.19;4977672;28;20027;-77
2022/11/09 07:27:00;;;;;;;5.40;2.07;;;;;;;11.39;100.00;99806.81;4979070;28;20030;-75
2022/11/09 07:29:26;;;;;;;3.13;2.40;;;;;;;11.45;100.00;99807.06;4979518;28;20034;-77
2022/11/09 07:31:51;;;;;;;4.77;2.40;;;;;;;11.47;100.00;99799.69;4976605;28;20039;-75
2022/11/09 07:34:16;;;;;;;5.77;2.23;;;;;;;11.50;100.00;99804.66;4965872;28;20031;-75
2022/11/09 07:36:42;;;;;;;7.27;2.47;;;;;;;11.54;100.00;99792.53;4976913;28;20113;-75
2022/11/09 07:39:07;;;;;;;5.70;2.23;;;;;;;11.55;100.00;99799.56;4979126;28;20030;-75
2022/11/09 07:41:32;;;;;;;9.10;2.07;;;;;;;11.50;100.00;99802.81;4978818;28;20031;-75
2022/11/09 07:43:58;;;;;;;5.63;2.77;;;;;;;11.52;100.00;99832.00;4960610;28;20039;-75
2022/11/09 07:46:23;;;;;;;3.90;1.97;;;;;;;11.44;100.00;99851.66;4958360;28;20045;-75
2022/11/09 07:48:48;;;;;;;3.43;1.93;;;;;;;11.34;100.00;99886.72;4977077;28;20074;-78
2022/11/09 07:51:14;;;;;;;5.37;2.13;;;;;;;11.46;100.00;99945.84;4965502;28;20039;-76
2022/11/09 07:53:39;;;;;;;6.27;2.10;;;;;;;11.52;100.00;99955.81;4960384;28;20111;-76
2022/11/09 07:56:05;;;;;;;22.90;3.00;;;;;;;11.88;100.00;99978.25;4976149;28;20038;-77
2022/11/09 07:58:33;;;;;;;5.10;2.10;;;;;;;12.00;100.00;99948.09;4976285;28;20081;-77
2022/11/09 08:00:59;;;;;;;5.35;2.53;;;;;;;11.94;100.00;99907.91;4979999;28;20019;-76
2022/11/09 08:03:27;;;;;;;11.15;1.95;;;;;;;12.08;100.00;99888.31;4974605;28;20037;-76
2022/11/09 08:05:55;;;;;;;11.32;2.72;;;;;;;12.17;100.00;99873.75;4979853;28;20118;-78
2022/11/09 08:08:20;;;;;;;4.18;2.10;;;;;;;12.36;100.00;99842.81;4967301;28;20116;-79
2022/11/09 08:10:50;;;;;;;11.30;2.30;;;;;;;12.45;100.00;99803.31;4978825;28;20146;-78
2022/11/09 08:13:16;;;;;;;5.15;2.17;;;;;;;12.57;100.00;99761.59;4976186;28;20515;-76
2022/11/09 08:15:41;;;;;;;5.82;2.70;;;;;;;12.93;100.00;99755.13;4976375;28;20022;-76
2022/11/09 08:18:11;;;;;;;5.00;1.87;;;;;;;13.23;100.00;99677.06;4975553;28;20125;-75
2022/11/09 08:20:36;;;;;;;4.55;1.50;;;;;;;13.08;100.00;99562.81;4959455;28;20499;-75
2022/11/09 08:23:02;;;;;;;5.07;2.20;;;;;;;13.61;100.00;99591.44;4976598;28;20066;-75
2022/11/09 08:25:28;;;;;;;;;;;;;;;14.05;100.00;99514.72;4977380;28;20027;-76
2022/11/09 08:27:56;;;;;;;;;;;;;;;14.57;100.00;99404.47;4979276;28;19917;-77
2022/11/09 08:30:22;;;;;;;2.80;1.95;;;;;;;13.89;100.00;99276.44;4977569;28;19990;-76
2022/11/09 08:32:48;;;;;;;7.13;2.10;;;;;;;14.09;100.00;99284.28;4976009;28;20117;-76
2022/11/09 08:35:16;;;;;;;5.13;1.80;;;;;;;13.14;100.00;99297.78;4978328;28;20026;-75
2022/11/09 08:37:46;;;;;;;3.47;1.95;;;;;;;13.05;100.00;99418.56;4978964;28;20464;-76
2022/11/09 08:40:14;;;;;;;3.65;2.10;;;;;;;13.05;100.00;99472.16;4975032;28;20049;-76
2022/11/09 08:42:39;;;;;;;4.28;1.75;;;;;;;12.71;100.00;99513.41;4976761;28;20022;-75
2022/11/09 08:45:05;;;;;;;7.73;2.20;;;;;;;12.68;100.00;99583.44;4975351;28;20153;-76
2022/11/09 08:47:30;;;;;;;2.53;1.60;;;;;;;12.55;100.00;99605.69;4975025;28;20045;-76
2022/11/09 08:49:55;;;;;;;4.37;1.77;;;;;;;12.57;100.00;99653.66;4976653;28;20496;-76
2022/11/09 08:52:21;;;;;;;4.40;1.60;;;;;;;12.62;100.00;99688.69;4976625;28;20269;-75
2022/11/09 08:54:47;;;;;;;2.80;1.77;;;;;;;12.58;100.00;99661.50;4976238;28;20402;-75
2022/11/09 08:57:12;;;;;;;6.70;2.47;;;;;;;12.55;100.00;99690.50;4975231;28;20041;-77
2022/11/09 08:59:37;;;;;;;5.73;1.77;;;;;;;13.01;100.00;99735.34;4961907;28;20038;-74
2022/11/09 09:02:03;;;;;;;5.73;2.13;;;;;;;13.93;100.00;99645.22;4977991;28;20038;-75
2022/11/09 09:04:29;;;;;;;7.93;1.95;;;;;;;13.42;100.00;99447.56;4976973;28;20026;-74
2022/11/09 09:06:55;;;;;;;5.15;1.88;;;;;;;13.52;100.00;99485.44;4976638;28;20038;-76
2022/11/09 09:09:21;;;;;;;6.78;1.77;;;;;;;13.91;100.00;99460.28;4978696;28;20068;-77
2022/11/09 09:11:46;;;;;;;8.47;1.90;;;;;;;13.79;100.00;99418.25;4979417;28;20057;-74
2022/11/09 09:14:11;;;;;;;7.53;1.80;;;;;;;13.50;100.00;99351.59;4970313;28;20070;-75
2022/11/09 09:16:37;;;;;;;4.70;1.87;;;;;;;13.10;100.00;99394.63;4981993;28;20471;-76
2022/11/09 09:19:02;;;;;;;5.10;1.80;;;;;;;13.91;100.00;99492.50;4974420;28;20046;-75
2022/11/09 09:21:27;;;;;;;8.53;1.87;;;;;;;14.17;100.00;99468.41;4966626;28;20551;-75
2022/11/09 09:23:53;;;;;;;3.93;1.77;;;;;;;14.52;100.00;99399.75;4977979;28;20419;-76
2022/11/09 09:26:19;;;;;;;5.95;1.83;;;;;;;15.20;100.00;99275.16;4977159;28;20052;-76
2022/11/09 09:28:44;;;;;;;4.77;2.17;;;;;;;15.12;100.00;99028.19;4975362;28;20026;-75
2022/11/09 09:31:09;;;;;;;5.93;1.77;;;;;;;15.60;100.00;99180.41;4974171;28;20476;-76
2022/11/09 09:33:35;;;;;;;6.77;2.23;;;;;;;15.07;100.00;98998.50;4957922;28;20043;-75
2022/11/09 09:36:01;;;;;;;7.10;2.47;;;;;;;14.95;100.00;99013.81;4975128;28;20043;-75
2022/11/09 09:38:27;;;;;;;6.82;1.80;;;;;;;15.00;100.00;98968.25;4973585;28;20042;-75
2022/11/09 09:41:00;;;;;;;3.40;1.55;;;;;;;14.55;100.00;98991.13;4976816;28;20034;-75
2022/11/09 09:43:41;;;;;;;6.53;1.83;;;;;;;14.78;100.00;99005.66;4977200;28;20046;-78
2022/11/09 09:46:32;;;;;;;5.30;1.50;;;;;;;14.88;100.00;99126.78;4962333;28;20027;-75
2022/11/09 09:49:04;;;;;;;2.80;1.38;;;;;;;14.88;100.00;99117.91;4973526;28;20031;-77
2022/11/09 09:51:39;;;;;;;4.35;1.40;;;;;;;15.28;100.00;99165.66;4981514;28;20133;-79
2022/11/09 09:54:18;;;;;;;2.22;1.77;;;;;;;15.23;100.00;99021.19;4976283;28;20084;-78
2022/11/09 09:56:46;;;;;;;3.40;1.40;;;;;;;15.19;100.00;98996.66;4954241;28;20034;-75
2022/11/09 09:59:19;;;;;;;2.90;1.63;;;;;;;14.96;100.00;98984.03;4959660;28;20334;-76
2022/11/09 10:01:45;;;;;;;3.40;1.50;;;;;;;14.55;100.00;98969.63;4961974;28;20910;-77
2022/11/09 10:04:17;;;;;;;3.55;1.92;;;;;;;14.70;100.00;99146.50;4973624;28;20046;-78
2022/11/09 10:07:02;;;;;;;5.85;1.75;;;;;;;15.28;100.00;99329.66;4976066;28;20034;-78
2022/11/09 10:09:49;;;;;;;3.47;1.67;;;;;;;15.02;100.00;98939.28;4981302;28;20096;-77
2022/11/09 10:12:52;;;;;;;9.35;2.38;;;;;;;15.49;100.00;98973.34;4977167;28;20146;-78
2022/11/09 10:15:31;;;;;;;6.43;1.80;;;;;;;15.27;100.00;98963.22;4976758;28;20041;-77
2022/11/09 10:18:17;;;;;;;4.43;1.58;;;;;;;15.25;100.00;99034.41;4973595;28;20026;-78
2022/11/09 10:20:52;;;;;;;5.45;1.70;;;;;;;16.43;100.00;99014.16;4978609;28;20034;-78
2022/11/09 10:23:27;;;;;;;3.78;1.83;;;;;;;16.53;100.00;98843.00;4975169;28;20124;-78
2022/11/09 10:26:09;;;;;;;3.20;1.70;;;;;;;15.96;100.00;98626.84;4976746;28;20071;-78
2022/11/09 10:28:40;;;;;;;5.80;1.65;;;;;;;15.23;100.00;98603.72;4976745;28;20061;-77
2022/11/09 10:31:16;;;;;;;7.55;1.73;;;;;;;14.55;100.00;98794.28;4976109;28;20053;-78
2022/11/09 10:33:43;;;;;;;;;;;;;;;14.56;100.00;99016.94;4979093;28;20069;-75
2022/11/09 10:36:22;;;;;;;4.30;1.85;;;;;;;14.57;100.00;98990.91;4976760;28;20349;-74
2022/11/09 10:38:50;;;;;;;6.10;1.90;;;;;;;14.43;100.00;99094.97;4979090;28;20046;-75
2022/11/09 10:41:41;;;;;;;7.90;2.17;;;;;;;14.79;100.00;99109.34;4980987;28;20096;-77
2022/11/09 10:44:25;;;;;;;6.63;3.50;;;;;;;14.88;100.00;99074.91;4978207;28;20125;-77
2022/11/09 10:47:15;;;;;;;6.07;2.00;;;;;;;14.74;100.00;99067.06;4977551;28;20411;-78
2022/11/09 10:50:08;;;;;;;6.72;2.40;;;;;;;14.58;100.00;99035.50;4976496;28;20077;-78
2022/11/09 10:52:52;;;;;;;7.55;2.40;;;;;;;14.61;100.00;99117.47;4978897;28;20463;-78
2022/11/09 10:55:36;;;;;;;6.78;1.77;;;;;;;14.33;100.00;98990.81;4980382;28;20049;-78
2022/11/09 10:58:33;;;;;;;9.68;2.72;;;;;;;14.39;100.00;99068.81;4980840;28;20514;-78
2022/11/09 11:01:25;;;;;;;9.90;2.38;;;;;;;14.86;100.00;99115.44;4977312;28;20556;-78
2022/11/09 11:04:21;;;;;;;8.07;2.72;;;;;;;14.63;100.00;98909.38;4977486;28;20052;-79
2022/11/09 11:07:18;;;;;;;6.97;1.95;;;;;;;14.30;100.00;98932.22;4979664;28;20044;-78
2022/11/09 11:10:14;;;;;;;6.95;1.98;;;;;;;15.25;100.00;99034.41;4983625;28;20042;-77
2022/11/09 11:12:58;;;;;;;4.80;1.77;;;;;;;15.45;100.00;98818.88;4976166;28;20050;-78
2022/11/09 11:15:42;;;;;;;4.50;1.70;;;;;;;15.04;100.00;98656.88;4978411;28;20065;-77
2022/11/09 11:18:26;;;;;;;10.43;2.50;;;;;;;15.15;100.00;98807.34;4980171;28;20459;-78
2022/11/09 11:21:17;;;;;;;9.65;2.25;;;;;;;15.60;100.00;98803.84;4978817;28;20522;-78
2022/11/09 11:24:17;;;;;;;8.90;2.22;;;;;;;15.51;100.00;98731.88;4982967;28;20411;-77
2022/11/09 11:27:10;;;;;;;13.68;2.28;;;;;;;15.08;100.00;98691.09;4984104;28;20125;-78
2022/11/09 11:30:03;;;;;;;7.30;1.92;;;;;;;14.64;100.00;98827.78;4979006;28;20053;-77
2022/11/09 11:32:47;;;;;;;6.07;2.20;;;;;;;14.57;100.00;98964.03;4977918;28;20411;-77
2022/11/09 11:35:42;;;;;;;4.40;1.63;;;;;;;14.17;100.00;98932.44;4976564;28;20046;-77
2022/11/09 11:38:32;;;;;;;10.63;1.75;;;;;;;14.15;100.00;99072.22;4975761;28;20045;-78